Time;durP1;ratioP1;P1;durP2;ratioP2;P2;SDS_P1;SDS_P2;PMS_P1;PMS_P2;Temp;Humidity;BMP_temperature;BMP_pressure;BME280_temperature;BME280_humidity;BME280_pressure;Samples;Min_cycle;Max_cycle;Signal;HPM_P1;HPM_P2
2023/10/25 00:02:25;;;;;;;;;;;;;;;11.93;37.12;101021.38;5107957;28;19912;-67
2023/10/25 00:04:56;;;;;;;;;;;;;;;11.95;37.17;101030.09;5098726;28;19965;-68
2023/10/25 00:07:22;;;;;;;;;;;;;;;11.89;37.38;101033.53;5098064;28;19916;-68
2023/10/25 00:09:47;;;;;;;;;;;;;;;11.91;37.36;101033.38;5097739;28;19958;-68
2023/10/25 00:12:13;;;;;;;;;;;;;;;11.91;36.75;101041.44;5098190;28;19942;-68
2023/10/25 00:14:38;;;;;;;;;;;;;;;11.91;36.88;101039.59;5098571;28;20349;-68
2023/10/25 00:17:03;;;;;;;;;;;;;;;11.95;37.35;101042.72;5098244;28;19920;-68
2023/10/25 00:19:29;;;;;;;;;;;;;;;11.97;37.92;101041.50;5098038;28;20360;-68
2023/10/25 00:21:54;;;;;;;;;;;;;;;11.99;37.16;101046.72;5098349;28;20406;-68
2023/10/25 00:24:19;;;;;;;;;;;;;;;11.96;36.83;101045.25;5098677;28;19916;-68
2023/10/25 00:26:44;;;;;;;;;;;;;;;11.95;36.83;101045.44;5113772;28;19912;-68
2023/10/25 00:29:10;;;;;;;;;;;;;;;11.94;37.38;101047.28;5098139;28;20303;-68
2023/10/25 00:31:35;;;;;;;;;;;;;;;11.95;37.28;101045.44;5097951;28;19912;-67
2023/10/25 00:34:00;;;;;;;;;;;;;;;11.98;37.97;101045.88;5097344;28;20392;-67
2023/10/25 00:36:27;;;;;;;;;;;;;;;11.97;37.60;101035.31;5079724;28;19973;-67
2023/10/25 00:38:53;;;;;;;;;;;;;;;11.95;37.21;101040.03;5097367;28;19916;-67
2023/10/25 00:41:18;;;;;;;;;;;;;;;11.95;37.56;101038.19;5097418;28;19914;-67
2023/10/25 00:43:43;;;;;;;;;;;;;;;11.96;38.05;101023.72;5099217;28;20351;-67
2023/10/25 00:46:12;;;;;;;;;;;;;;;11.96;37.49;101025.53;5117973;28;19919;-67
2023/10/25 00:48:42;;;;;;;;;;;;;;;11.91;36.75;101017.22;5117734;28;19912;-67
2023/10/25 00:51:09;;;;;;;;;;;;;;;11.90;37.52;101018.25;5117821;28;19919;-67
2023/10/25 00:53:35;;;;;;;;;;;;;;;11.92;37.12;101016.19;5097426;28;20304;-67
2023/10/25 00:56:00;;;;;;;;;;;;;;;11.94;37.00;101016.81;5096744;28;19923;-67
2023/10/25 00:58:26;;;;;;;;;;;;;;;11.88;37.13;101010.31;5097108;28;19916;-67
2023/10/25 01:00:55;;;;;;;;;;;;;;;11.86;37.35;101008.84;5097715;28;19919;-67
2023/10/25 01:03:20;;;;;;;;;;;;;;;11.87;37.12;101000.59;5096560;28;19969;-67
2023/10/25 01:05:46;;;;;;;;;;;;;;;11.86;37.73;101000.78;5078887;28;19920;-67
2023/10/25 01:08:11;;;;;;;;;;;;;;;11.84;37.67;101000.13;5097422;28;19995;-67
2023/10/25 01:10:36;;;;;;;;;;;;;;;11.83;37.69;100991.22;5096889;28;19973;-67
2023/10/25 01:13:02;;;;;;;;;;;;;;;11.76;37.82;100995.69;5095495;28;20293;-67
2023/10/25 01:15:27;;;;;;;;;;;;;;;11.76;36.87;100998.38;5097038;28;19912;-67
2023/10/25 01:17:52;;;;;;;;;;;;;;;11.76;37.54;100996.53;5096873;28;20341;-67
2023/10/25 01:20:19;;;;;;;;;;;;;;;11.74;37.15;100984.28;5097040;28;19912;-67
2023/10/25 01:22:45;;;;;;;;;;;;;;;11.75;37.58;100983.25;5096732;28;19959;-67
2023/10/25 01:25:11;;;;;;;;;;;;;;;11.70;37.41;100982.97;5096675;28;19923;-67
2023/10/25 01:27:36;;;;;;;;;;;;;;;11.70;37.81;100978.44;5096625;28;19912;-67
2023/10/25 01:30:01;;;;;;;;;;;;;;;11.72;38.21;100971.03;5096653;28;19960;-67
2023/10/25 01:32:27;;;;;;;;;;;;;;;11.67;37.67;100973.44;5078552;28;19912;-67
2023/10/25 01:34:52;;;;;;;;;;;;;;;11.68;37.47;100968.88;5096273;28;20003;-67
2023/10/25 01:37:17;;;;;;;;;;;;;;;11.71;37.94;100966.66;5096326;28;19916;-67
2023/10/25 01:39:43;;;;;;;;;;;;;;;11.71;37.30;100957.75;5096240;28;20293;-67
2023/10/25 01:42:08;;;;;;;;;;;;;;;11.70;37.98;100958.75;5108246;28;20386;-67
2023/10/25 01:44:34;;;;;;;;;;;;;;;11.70;37.38;100956.94;5096567;28;20265;-67
2023/10/25 01:46:59;;;;;;;;;;;;;;;11.68;37.48;100945.53;5078420;28;20276;-66
2023/10/25 01:49:24;;;;;;;;;;;;;;;11.67;37.56;100943.84;5078049;28;20338;-67
2023/10/25 01:51:49;;;;;;;;;;;;;;;11.61;37.41;100947.28;5092717;28;19957;-67
2023/10/25 01:54:15;;;;;;;;;;;;;;;11.60;37.33;100945.63;5115638;28;20016;-67
2023/10/25 01:56:40;;;;;;;;;;;;;;;11.60;37.35;100938.38;5116237;28;19943;-67
2023/10/25 01:59:05;;;;;;;;;;;;;;;11.60;37.51;100932.16;5091471;28;19934;-67
2023/10/25 02:01:30;;;;;;;;;;;;;;;11.57;38.01;100925.31;5095705;28;19919;-67
2023/10/25 02:03:56;;;;;;;;;;;;;;;11.54;37.37;100911.41;5095926;28;19966;-67
2023/10/25 02:06:21;;;;;;;;;;;;;;;11.48;37.50;100926.44;5095926;28;19935;-67
2023/10/25 02:08:47;;;;;;;;;;;;;;;11.40;36.68;100921.16;5095921;28;19912;-67
2023/10/25 02:11:12;;;;;;;;;;;;;;;11.36;37.77;100919.88;5095770;28;19920;-67
2023/10/25 02:13:38;;;;;;;;;;;;;;;11.32;37.41;100924.78;5095782;28;19912;-67
2023/10/25 02:16:11;;;;;;;;;;;;;;;11.23;37.57;100924.03;5095847;28;19923;-67
2023/10/25 02:18:36;;;;;;;;;;;;;;;11.13;37.76;100920.81;5095973;28;20420;-66
2023/10/25 02:21:03;;;;;;;;;;;;;;;11.07;38.30;100924.25;5097133;28;19951;-66
2023/10/25 02:23:28;;;;;;;;;;;;;;;11.03;37.79;100921.09;5096281;28;19916;-66
2023/10/25 02:25:54;;;;;;;;;;;;;;;10.93;37.86;100922.41;5096011;28;19973;-66
2023/10/25 02:28:19;;;;;;;;;;;;;;;10.90;37.71;100928.13;5095258;28;19966;-67
2023/10/25 02:30:44;;;;;;;;;;;;;;;10.91;38.03;100929.81;5095530;28;20007;-67
2023/10/25 02:33:09;;;;;;;;;;;;;;;10.82;37.89;100923.69;5095121;28;19951;-67
2023/10/25 02:35:35;;;;;;;;;;;;;;;10.78;37.96;100919.69;5095222;28;19912;-67
2023/10/25 02:38:00;;;;;;;;;;;;;;;10.75;38.53;100920.06;5111922;28;20353;-67
2023/10/25 02:40:25;;;;;;;;;;;;;;;10.70;38.48;100920.63;5115598;28;20025;-68
2023/10/25 02:42:50;;;;;;;;;;;;;;;10.65;38.53;100926.53;5115667;28;19911;-67
2023/10/25 02:45:15;;;;;;;;;;;;;;;10.65;38.52;100929.22;5115404;28;19916;-67
2023/10/25 02:47:41;;;;;;;;;;;;;;;10.58;38.53;100927.44;5115512;28;19911;-67
2023/10/25 02:50:06;;;;;;;;;;;;;;;10.52;37.92;100931.69;5115928;28;19911;-67
2023/10/25 02:52:31;;;;;;;;;;;;;;;10.49;38.34;100937.41;5115518;28;19911;-67
2023/10/25 02:54:57;;;;;;;;;;;;;;;10.48;38.27;100943.81;5111344;28;19916;-67
2023/10/25 02:57:22;;;;;;;;;;;;;;;10.48;38.45;100938.44;5095530;28;19952;-67
2023/10/25 02:59:47;;;;;;;;;;;;;;;10.48;38.42;100934.94;5095219;28;19930;-67
2023/10/25 03:02:13;;;;;;;;;;;;;;;10.45;38.55;100931.56;5094430;28;19912;-67
2023/10/25 03:04:38;;;;;;;;;;;;;;;10.43;38.17;100938.16;5094846;28;20010;-67
2023/10/25 03:07:03;;;;;;;;;;;;;;;10.39;38.73;100932.31;5094950;28;19916;-67
2023/10/25 03:09:29;;;;;;;;;;;;;;;10.34;38.09;100929.31;5076731;28;19923;-67
2023/10/25 03:11:54;;;;;;;;;;;;;;;10.33;38.60;100935.72;5094572;28;19923;-67
2023/10/25 03:14:19;;;;;;;;;;;;;;;10.29;38.97;100937.06;5094767;28;19958;-67
2023/10/25 03:16:45;;;;;;;;;;;;;;;10.22;39.12;100918.16;5095051;28;19919;-67
2023/10/25 03:19:10;;;;;;;;;;;;;;;10.10;39.35;100932.16;5094603;28;19912;-67
2023/10/25 03:21:35;;;;;;;;;;;;;;;10.08;38.78;100935.03;5095057;28;19912;-67
2023/10/25 03:24:03;;;;;;;;;;;;;;;10.04;38.56;100931.88;5094325;28;19923;-67
2023/10/25 03:26:28;;;;;;;;;;;;;;;10.00;38.85;100924.38;5094510;28;19912;-67
2023/10/25 03:28:54;;;;;;;;;;;;;;;10.02;38.81;100928.53;5094772;28;19938;-67
2023/10/25 03:31:19;;;;;;;;;;;;;;;10.10;38.99;100921.44;5094194;28;19919;-67
2023/10/25 03:33:45;;;;;;;;;;;;;;;10.17;38.94;100909.78;5089123;28;19915;-66
2023/10/25 03:36:10;;;;;;;;;;;;;;;10.24;38.90;100907.25;5100736;28;19912;-66
2023/10/25 03:38:36;;;;;;;;;;;;;;;10.14;38.56;100894.06;5094405;28;19912;-67
2023/10/25 03:41:07;;;;;;;;;;;;;;;10.14;39.16;100904.81;5094145;28;19969;-67
2023/10/25 03:43:33;;;;;;;;;;;;;;;10.14;38.60;100912.00;5094325;28;19916;-67
2023/10/25 03:46:03;;;;;;;;;;;;;;;10.12;39.42;100912.19;5094452;28;19961;-67
2023/10/25 03:48:28;;;;;;;;;;;;;;;10.12;38.92;100906.00;5094625;28;19920;-67
2023/10/25 03:50:54;;;;;;;;;;;;;;;10.11;38.66;100898.97;5094030;28;20292;-67
2023/10/25 03:53:19;;;;;;;;;;;;;;;10.08;38.63;100902.81;5094272;28;19912;-67
2023/10/25 03:55:55;;;;;;;;;;;;;;;10.11;38.59;100907.84;5094239;28;19920;-68
2023/10/25 03:58:20;;;;;;;;;;;;;;;10.10;38.91;100906.16;5114265;28;20008;-67
2023/10/25 04:00:45;;;;;;;;;;;;;;;10.09;38.72;100904.50;5114330;28;19968;-68
2023/10/25 04:03:11;;;;;;;;;;;;;;;10.05;38.95;100897.84;5097472;28;19912;-67
2023/10/25 04:05:39;;;;;;;;;;;;;;;10.01;39.70;100905.41;5094295;28;19912;-67
2023/10/25 04:08:04;;;;;;;;;;;;;;;9.92;39.24;100903.78;5094289;28;19928;-67
2023/10/25 04:10:29;;;;;;;;;;;;;;;9.95;39.18;100906.09;5093975;28;20015;-67
2023/10/25 04:12:55;;;;;;;;;;;;;;;10.02;39.53;100908.91;5093865;28;20357;-67
2023/10/25 04:15:20;;;;;;;;;;;;;;;10.02;39.70;100903.56;5093825;28;19916;-67
2023/10/25 04:17:45;;;;;;;;;;;;;;;10.14;39.25;100898.59;5093694;28;19912;-67
2023/10/25 04:20:11;;;;;;;;;;;;;;;10.17;38.85;100904.44;5093740;28;20257;-67
2023/10/25 04:22:37;;;;;;;;;;;;;;;10.19;39.73;100904.25;5094216;28;19916;-67
2023/10/25 04:25:03;;;;;;;;;;;;;;;10.16;39.30;100915.34;5093935;28;20426;-67
2023/10/25 04:27:29;;;;;;;;;;;;;;;10.15;39.23;100919.88;5093613;28;20448;-67
2023/10/25 04:29:54;;;;;;;;;;;;;;;10.25;39.37;100912.44;5105783;28;19955;-67
2023/10/25 04:32:19;;;;;;;;;;;;;;;10.31;39.47;100912.72;5096612;28;20037;-67
2023/10/25 04:34:44;;;;;;;;;;;;;;;10.32;39.28;100893.75;5093935;28;19912;-67
2023/10/25 04:37:10;;;;;;;;;;;;;;;10.32;39.21;100912.56;5094049;28;20360;-67
2023/10/25 04:39:35;;;;;;;;;;;;;;;10.32;39.02;100909.88;5093699;28;20334;-67
2023/10/25 04:42:00;;;;;;;;;;;;;;;10.35;39.39;100914.06;5093391;28;19919;-67
2023/10/25 04:44:27;;;;;;;;;;;;;;;10.38;39.45;100916.38;5109406;28;19916;-67
2023/10/25 04:46:52;;;;;;;;;;;;;;;10.39;39.46;100916.19;5095885;28;19962;-67
2023/10/25 04:49:18;;;;;;;;;;;;;;;10.44;39.48;100908.44;5078953;28;19943;-67
2023/10/25 04:51:47;;;;;;;;;;;;;;;10.47;39.18;100912.59;5097196;28;19970;-67
2023/10/25 04:54:12;;;;;;;;;;;;;;;10.53;38.86;100911.88;5096879;28;19916;-67
2023/10/25 04:56:37;;;;;;;;;;;;;;;10.56;39.16;100908.81;5097127;28;19912;-67
2023/10/25 04:59:03;;;;;;;;;;;;;;;10.54;39.03;100907.34;5097169;28;19939;-67
2023/10/25 05:01:28;;;;;;;;;;;;;;;10.55;38.81;100909.00;5097260;28;20383;-67
2023/10/25 05:03:53;;;;;;;;;;;;;;;10.58;38.69;100919.38;5097159;28;19921;-67
2023/10/25 05:06:19;;;;;;;;;;;;;;;10.64;38.84;100919.50;5096692;28;20018;-67
2023/10/25 05:08:44;;;;;;;;;;;;;;;10.69;39.01;100921.63;5097156;28;19923;-67
2023/10/25 05:11:13;;;;;;;;;;;;;;;10.75;38.69;100925.44;5096649;28;19920;-67
2023/10/25 05:13:38;;;;;;;;;;;;;;;10.73;38.17;100914.84;5097031;28;19912;-67
2023/10/25 05:16:04;;;;;;;;;;;;;;;10.77;38.53;100916.19;5097015;28;19927;-67
2023/10/25 05:18:30;;;;;;;;;;;;;;;10.83;38.68;100914.63;5096653;28;19912;-67
2023/10/25 05:20:59;;;;;;;;;;;;;;;10.84;38.31;100924.31;5096716;28;20368;-67
2023/10/25 05:23:31;;;;;;;;;;;;;;;10.87;39.37;100929.34;5096612;28;19920;-67
2023/10/25 05:25:58;;;;;;;;;;;;;;;10.78;38.73;100919.69;5106556;28;19958;-67
2023/10/25 05:28:23;;;;;;;;;;;;;;;10.66;38.66;100927.38;5117366;28;19920;-67
2023/10/25 05:30:49;;;;;;;;;;;;;;;10.65;39.22;100926.53;5112118;28;19962;-67
2023/10/25 05:33:17;;;;;;;;;;;;;;;10.54;39.38;100928.81;5096637;28;19923;-67
2023/10/25 05:35:43;;;;;;;;;;;;;;;10.32;39.90;100933.22;5096651;28;20264;-67
2023/10/25 05:38:08;;;;;;;;;;;;;;;10.47;40.32;100928.72;5096869;28;19919;-67
2023/10/25 05:40:33;;;;;;;;;;;;;;;10.58;40.02;100933.63;5096136;28;19955;-66
2023/10/25 05:43:01;;;;;;;;;;;;;;;10.61;39.79;100933.28;5096280;28;20422;-67
2023/10/25 05:45:27;;;;;;;;;;;;;;;10.51;39.53;100943.47;5096046;28;20006;-67
2023/10/25 05:47:52;;;;;;;;;;;;;;;10.26;40.51;100932.06;5096016;28;19951;-67
2023/10/25 05:50:18;;;;;;;;;;;;;;;9.96;41.46;100936.47;5111629;28;19919;-67
2023/10/25 05:52:44;;;;;;;;;;;;;;;10.03;40.78;100932.06;5077723;28;20385;-67
2023/10/25 05:55:10;;;;;;;;;;;;;;;9.99;41.02;100942.31;5095133;28;20399;-67
2023/10/25 05:57:36;;;;;;;;;;;;;;;10.02;40.71;100933.06;5094723;28;20015;-67
2023/10/25 06:00:01;;;;;;;;;;;;;;;9.93;40.45;100934.13;5077519;28;20349;-67
2023/10/25 06:02:27;;;;;;;;;;;;;;;9.88;40.33;100932.81;5085131;28;19916;-67
2023/10/25 06:04:55;;;;;;;;;;;;;;;9.73;40.40;100931.88;5075497;28;19964;-67
2023/10/25 06:07:20;;;;;;;;;;;;;;;9.70;39.99;100932.25;5057592;28;19912;-67
2023/10/25 06:09:45;;;;;;;;;;;;;;;9.67;40.14;100928.06;5075274;28;19913;-67
2023/10/25 06:12:11;;;;;;;;;;;;;;;9.57;40.23;100940.06;5088391;28;19920;-67
2023/10/25 06:14:36;;;;;;;;;;;;;;;9.51;40.23;100933.53;5095952;28;19919;-67
2023/10/25 06:17:02;;;;;;;;;;;;;;;9.41;40.28;100946.31;5077900;28;19920;-67
2023/10/25 06:19:31;;;;;;;;;;;;;;;9.29;40.37;100935.16;5095824;28;19919;-68
2023/10/25 06:21:57;;;;;;;;;;;;;;;9.22;40.00;100940.34;5103491;28;20253;-68
2023/10/25 06:24:22;;;;;;;;;;;;;;;9.06;39.89;100935.91;5115996;28;20284;-68
2023/10/25 06:26:47;;;;;;;;;;;;;;;8.97;40.04;100936.06;5095809;28;20368;-67
2023/10/25 06:29:12;;;;;;;;;;;;;;;8.95;40.43;100938.09;5095350;28;19912;-68
2023/10/25 06:31:38;;;;;;;;;;;;;;;8.90;40.17;100930.56;5095531;28;20030;-68
2023/10/25 06:34:03;;;;;;;;;;;;;;;8.88;40.29;100940.63;5095231;28;19951;-68
2023/10/25 06:36:30;;;;;;;;;;;;;;;8.84;40.32;100936.59;5095180;28;19916;-68
2023/10/25 06:38:56;;;;;;;;;;;;;;;8.74;40.06;100936.78;5095567;28;20323;-68
2023/10/25 06:41:24;;;;;;;;;;;;;;;8.72;40.36;100930.78;5095155;28;19969;-67
2023/10/25 06:43:50;;;;;;;;;;;;;;;8.83;40.35;100935.78;5095492;28;19916;-67
2023/10/25 06:46:16;;;;;;;;;;;;;;;8.85;40.62;100932.94;5095023;28;19919;-67
2023/10/25 06:48:41;;;;;;;;;;;;;;;8.92;41.20;100931.25;5095167;28;19916;-68
2023/10/25 06:51:08;;;;;;;;;;;;;;;8.96;40.69;100929.06;5103991;28;20390;-68
2023/10/25 06:53:36;;;;;;;;;;;;;;;9.02;40.76;100929.19;5115804;28;19912;-68
2023/10/25 06:56:01;;;;;;;;;;;;;;;9.14;40.58;100939.53;5130320;27;19919;-67
2023/10/25 06:58:30;;;;;;;;;;;;;;;9.23;40.39;100942.03;5100296;28;19913;-68
2023/10/25 07:00:56;;;;;;;;;;;;;;;9.34;40.01;100946.16;5095249;28;19938;-67
2023/10/25 07:03:26;;;;;;;;;;;;;;;9.42;39.96;100946.13;5076274;28;19920;-66
2023/10/25 07:05:55;;;;;;;;;;;;;;;9.50;39.89;100937.22;5074523;28;19919;-67
2023/10/25 07:08:21;;;;;;;;;;;;;;;9.44;40.02;100941.44;5087107;28;19912;-67
2023/10/25 07:10:46;;;;;;;;;;;;;;;9.54;39.88;100943.06;5093272;28;19920;-68
2023/10/25 07:13:11;;;;;;;;;;;;;;;9.55;39.64;100942.06;5094943;28;20367;-68
2023/10/25 07:15:37;;;;;;;;;;;;;;;9.60;39.73;100940.53;5094565;28;19912;-68
2023/10/25 07:18:02;;;;;;;;;;;;;;;9.67;39.70;100946.84;5101641;27;19911;-68
2023/10/25 07:20:27;;;;;;;;;;;;;;;9.71;40.08;100935.78;5115276;28;19977;-68
2023/10/25 07:22:53;;;;;;;;;;;;;;;9.75;39.43;100945.13;5096496;28;19915;-67
2023/10/25 07:25:19;;;;;;;;;;;;;;;9.82;39.52;100949.59;5106821;28;19916;-68
2023/10/25 07:27:44;;;;;;;;;;;;;;;9.84;39.52;100946.75;5094423;28;19923;-67
2023/10/25 07:30:09;;;;;;;;;;;;;;;9.85;39.26;100943.91;5094072;28;19912;-68
2023/10/25 07:32:35;;;;;;;;;;;;;;;9.91;39.05;100941.53;5094127;28;19913;-68
2023/10/25 07:35:01;;;;;;;;;;;;;;;9.93;39.04;100950.22;5093883;28;20396;-68
2023/10/25 07:37:26;;;;;;;;;;;;;;;9.91;38.55;100939.66;5093977;28;19916;-68
2023/10/25 07:39:51;;;;;;;;;;;;;;;9.83;38.48;100939.75;5094038;28;19912;-68
2023/10/25 07:42:16;;;;;;;;;;;;;;;9.80;38.19;100950.81;5093696;28;19912;-68
2023/10/25 07:44:42;;;;;;;;;;;;;;;9.80;38.40;100948.94;5075883;28;19916;-68
2023/10/25 07:47:07;;;;;;;;;;;;;;;9.67;38.48;100943.34;5094033;28;19974;-67
2023/10/25 07:49:36;;;;;;;;;;;;;;;9.71;38.68;100946.50;5093886;28;19919;-68
2023/10/25 07:52:02;;;;;;;;;;;;;;;9.70;38.41;100948.34;5109676;28;19912;-68
2023/10/25 07:54:27;;;;;;;;;;;;;;;9.74;38.23;100951.53;5101239;28;20370;-68
2023/10/25 07:56:54;;;;;;;;;;;;;;;9.78;37.94;100950.97;5094320;28;20349;-68
2023/10/25 07:59:19;;;;;;;;;;;;;;;9.75;38.12;100958.53;5094027;28;19916;-68
2023/10/25 08:01:44;;;;;;;;;;;;;;;9.69;38.27;100952.91;5093377;28;20364;-68
2023/10/25 08:04:10;;;;;;;;;;;;;;;9.66;37.71;100950.56;5093427;28;20347;-68
2023/10/25 08:06:35;;;;;;;;;;;;;;;9.72;37.85;100954.38;5094061;28;19912;-68
2023/10/25 08:09:00;;;;;;;;;;;;;;;9.74;37.98;100957.72;5094062;28;20318;-68
2023/10/25 08:11:26;;;;;;;;;;;;;;;9.79;37.73;100957.19;5093355;28;19927;-68
2023/10/25 08:13:51;;;;;;;;;;;;;;;9.83;38.43;100953.97;5096325;28;19919;-68
2023/10/25 08:16:16;;;;;;;;;;;;;;;9.83;37.45;100947.78;5113831;28;19994;-68
2023/10/25 08:18:42;;;;;;;;;;;;;;;9.88;38.22;100945.41;5113684;28;20328;-68
2023/10/25 08:21:11;;;;;;;;;;;;;;;9.92;37.84;100943.19;5114616;28;19912;-68
2023/10/25 08:23:38;;;;;;;;;;;;;;;9.96;38.34;100947.22;5097170;28;19976;-68
2023/10/25 08:26:06;;;;;;;;;;;;;;;10.00;38.16;100951.19;5096927;28;19919;-69
2023/10/25 08:28:32;;;;;;;;;;;;;;;10.00;38.82;100954.72;5112926;28;19912;-68
2023/10/25 08:30:57;;;;;;;;;;;;;;;10.05;37.66;100951.50;5097211;28;20366;-68
2023/10/25 08:33:22;;;;;;;;;;;;;;;10.10;38.19;100951.78;5078767;28;19920;-68
2023/10/25 08:35:48;;;;;;;;;;;;;;;10.09;37.63;100947.44;5097088;28;19912;-68
2023/10/25 08:38:13;;;;;;;;;;;;;;;10.16;36.82;100937.66;5097067;28;20377;-68
2023/10/25 08:40:40;;;;;;;;;;;;;;;10.16;36.68;100945.72;5097055;28;20015;-68
2023/10/25 08:43:06;;;;;;;;;;;;;;;10.19;36.77;100945.34;5078649;28;19912;-68
2023/10/25 08:45:35;;;;;;;;;;;;;;;10.26;37.26;100948.97;5096824;28;19916;-68
2023/10/25 08:48:03;;;;;;;;;;;;;;;10.35;37.19;100946.28;5096801;28;19919;-68
2023/10/25 08:50:30;;;;;;;;;;;;;;;10.42;36.11;100936.50;5096887;28;19966;-68
2023/10/25 08:52:56;;;;;;;;;;;;;;;10.44;36.82;100940.66;5096672;28;19912;-68
2023/10/25 08:55:21;;;;;;;;;;;;;;;10.41;36.73;100937.50;5096454;28;20265;-67
2023/10/25 08:57:53;;;;;;;;;;;;;;;10.56;36.94;100933.00;5096423;28;19912;-67
2023/10/25 09:00:19;;;;;;;;;;;;;;;10.62;36.02;100934.97;5095982;28;20365;-67
2023/10/25 09:02:45;;;;;;;;;;;;;;;10.67;36.41;100933.56;5083239;28;19923;-67
2023/10/25 09:05:10;;;;;;;;;;;;;;;10.60;35.42;100930.78;5076016;28;19963;-67
2023/10/25 09:07:38;;;;;;;;;;;;;;;10.63;36.35;100933.94;5082983;28;19958;-67
2023/10/25 09:10:10;;;;;;;;;;;;;;;10.63;35.99;100927.75;5098486;28;20368;-67
2023/10/25 09:12:35;;;;;;;;;;;;;;;10.59;36.93;100935.31;5105248;28;20379;-67
2023/10/25 09:15:00;;;;;;;;;;;;;;;10.62;36.76;100921.53;5096222;28;19958;-67
2023/10/25 09:17:25;;;;;;;;;;;;;;;10.65;35.98;100915.78;5096339;28;20291;-67
2023/10/25 09:19:51;;;;;;;;;;;;;;;10.65;36.19;100921.16;5078016;28;19935;-67
2023/10/25 09:22:22;;;;;;;;;;;;;;;10.61;36.73;100917.16;5096136;28;20000;-67
2023/10/25 09:24:52;;;;;;;;;;;;;;;10.65;36.40;100917.63;5095673;28;19939;-67
2023/10/25 09:27:21;;;;;;;;;;;;;;;10.69;36.44;100912.75;5095923;28;19912;-67
2023/10/25 09:29:46;;;;;;;;;;;;;;;10.67;37.50;100912.09;5095599;28;20006;-67
2023/10/25 09:32:11;;;;;;;;;;;;;;;10.73;36.62;100909.50;5095109;28;19930;-67
2023/10/25 09:34:37;;;;;;;;;;;;;;;10.80;36.91;100902.38;5095406;28;19970;-67
2023/10/25 09:37:04;;;;;;;;;;;;;;;10.82;37.51;100905.69;5095860;28;20280;-67
2023/10/25 09:39:30;;;;;;;;;;;;;;;10.84;37.10;100909.03;5095686;28;19975;-67
2023/10/25 09:41:57;;;;;;;;;;;;;;;10.91;36.21;100909.13;5095446;28;19912;-67
2023/10/25 09:44:25;;;;;;;;;;;;;;;10.96;36.46;100906.75;5095487;28;19997;-67
2023/10/25 09:46:52;;;;;;;;;;;;;;;10.98;35.89;100911.94;5111021;28;19985;-67
2023/10/25 09:49:21;;;;;;;;;;;;;;;11.10;35.96;100907.75;5095231;28;20313;-67
2023/10/25 09:52:01;;;;;;;;;;;;;;;11.00;35.66;100912.56;5109613;28;20391;-68
2023/10/25 09:54:30;;;;;;;;;;;;;;;11.02;36.16;100908.69;5115446;28;19941;-68
2023/10/25 09:56:57;;;;;;;;;;;;;;;11.12;36.51;100905.69;5085905;28;19966;-67
2023/10/25 09:59:23;;;;;;;;;;;;;;;11.24;36.65;100904.22;5095194;28;19920;-67
2023/10/25 10:01:49;;;;;;;;;;;;;;;11.29;35.70;100908.19;5110497;28;19919;-67
2023/10/25 10:04:22;;;;;;;;;;;;;;;11.39;35.86;100901.50;5095002;28;19920;-68
2023/10/25 10:07:06;;;;;;;;;;;;;;;11.34;35.11;100909.28;5101639;28;20002;-67
2023/10/25 10:09:35;;;;;;;;;;;;;;;11.38;35.38;100907.88;5115499;28;20395;-67
2023/10/25 10:12:06;;;;;;;;;;;;;;;11.48;35.35;100893.31;5115211;28;20010;-67
2023/10/25 10:14:33;;;;;;;;;;;;;;;11.48;35.74;100893.31;5115086;28;19912;-68
2023/10/25 10:17:14;;;;;;;;;;;;;;;11.53;34.70;100888.22;5115520;28;19968;-67
2023/10/25 10:19:41;;;;;;;;;;;;;;;11.63;36.28;100897.66;5115477;28;19961;-67
2023/10/25 10:22:12;;;;;;;;;;;;;;;11.66;35.52;100891.03;5115357;28;19918;-68
2023/10/25 10:24:38;;;;;;;;;;;;;;;11.68;35.79;100880.94;5112980;28;19920;-67
2023/10/25 10:27:04;;;;;;;;;;;;;;;11.82;35.01;100880.03;5094538;28;19964;-67
2023/10/25 10:29:32;;;;;;;;;;;;;;;11.80;34.41;100886.66;5094968;28;19916;-67
2023/10/25 10:32:01;;;;;;;;;;;;;;;11.75;34.98;100878.31;5094950;28;19916;-67
2023/10/25 10:34:45;;;;;;;;;;;;;;;11.82;33.78;100880.03;5094613;28;19949;-67
2023/10/25 10:37:12;;;;;;;;;;;;;;;11.90;34.76;100883.66;5074115;28;19912;-67
2023/10/25 10:39:57;;;;;;;;;;;;;;;11.90;34.35;100880.97;5074494;28;19970;-67
2023/10/25 10:42:28;;;;;;;;;;;;;;;11.74;35.80;100877.50;5079505;28;20280;-67
2023/10/25 10:44:54;;;;;;;;;;;;;;;11.73;34.83;100874.97;5094244;28;19920;-67
2023/10/25 10:47:21;;;;;;;;;;;;;;;11.69;34.73;100868.31;5094487;28;19960;-67
2023/10/25 10:49:52;;;;;;;;;;;;;;;11.92;36.15;100868.16;5110287;28;19912;-68
2023/10/25 10:52:17;;;;;;;;;;;;;;;12.14;36.06;100866.28;5104194;28;19924;-68
2023/10/25 10:54:42;;;;;;;;;;;;;;;12.35;35.87;100862.72;5093996;28;20395;-68
2023/10/25 10:57:08;;;;;;;;;;;;;;;12.47;35.31;100853.09;5095030;28;19912;-68
2023/10/25 10:59:33;;;;;;;;;;;;;;;12.52;34.19;100849.81;5094948;28;19958;-68
2023/10/25 11:01:59;;;;;;;;;;;;;;;12.61;33.77;100840.56;5094887;28;19923;-68
2023/10/25 11:04:33;;;;;;;;;;;;;;;12.63;34.06;100841.19;5113869;28;19923;-68
2023/10/25 11:06:58;;;;;;;;;;;;;;;12.64;34.65;100834.75;5114942;28;19911;-68
2023/10/25 11:09:23;;;;;;;;;;;;;;;12.58;33.53;100833.66;5115220;28;19912;-68
2023/10/25 11:11:49;;;;;;;;;;;;;;;12.63;33.81;100838.50;5096904;28;20279;-67
2023/10/25 11:14:14;;;;;;;;;;;;;;;12.63;34.00;100833.09;5114876;28;19916;-67
2023/10/25 11:16:39;;;;;;;;;;;;;;;12.68;34.19;100825.22;5114602;28;19912;-67
2023/10/25 11:19:06;;;;;;;;;;;;;;;12.73;34.30;100835.44;5114665;28;20395;-68
2023/10/25 11:21:33;;;;;;;;;;;;;;;12.79;34.37;100840.84;5107972;28;19912;-67
2023/10/25 11:23:58;;;;;;;;;;;;;;;12.88;34.21;100838.00;5093917;28;19920;-67
2023/10/25 11:26:23;;;;;;;;;;;;;;;12.88;35.49;100829.91;5094168;28;20021;-67
2023/10/25 11:28:48;;;;;;;;;;;;;;;12.93;34.91;100830.16;5093639;28;19916;-67
2023/10/25 11:31:14;;;;;;;;;;;;;;;12.89;33.79;100823.47;5093694;28;19922;-67
2023/10/25 11:33:43;;;;;;;;;;;;;;;12.87;33.73;100833.63;5093581;28;19912;-67
2023/10/25 11:36:11;;;;;;;;;;;;;;;12.88;32.56;100825.34;5093666;28;19962;-67
2023/10/25 11:38:40;;;;;;;;;;;;;;;12.91;33.29;100827.66;5093700;28;19912;-68
2023/10/25 11:41:06;;;;;;;;;;;;;;;12.88;33.72;100822.66;5093597;28;20368;-67
2023/10/25 11:43:31;;;;;;;;;;;;;;;12.84;32.92;100817.88;5093419;28;19916;-67
2023/10/25 11:45:56;;;;;;;;;;;;;;;12.93;34.25;100817.50;5075243;28;19916;-67
2023/10/25 11:48:21;;;;;;;;;;;;;;;12.89;33.71;100816.22;5093247;28;19912;-67
2023/10/25 11:50:47;;;;;;;;;;;;;;;12.83;34.13;100808.94;5099513;28;19924;-67
2023/10/25 11:53:14;;;;;;;;;;;;;;;12.76;34.67;100810.78;5113778;28;19958;-67
2023/10/25 11:55:40;;;;;;;;;;;;;;;12.79;34.77;100810.38;5112218;28;19919;-67
2023/10/25 11:58:05;;;;;;;;;;;;;;;12.74;33.51;100812.81;5097551;28;19912;-67
2023/10/25 12:00:30;;;;;;;;;;;;;;;12.64;34.27;100804.28;5114608;28;19947;-67
2023/10/25 12:02:55;;;;;;;;;;;;;;;12.63;33.84;100808.00;5103083;28;20396;-67
2023/10/25 12:05:21;;;;;;;;;;;;;;;12.66;33.83;100804.91;5097505;28;20412;-67
2023/10/25 12:07:48;;;;;;;;;;;;;;;12.70;33.50;100801.63;5097458;28;19912;-67
2023/10/25 12:10:14;;;;;;;;;;;;;;;12.71;34.28;100808.66;5097077;28;20421;-67
2023/10/25 12:12:41;;;;;;;;;;;;;;;12.78;35.30;100803.31;5097818;28;19920;-67
2023/10/25 12:15:08;;;;;;;;;;;;;;;12.74;33.33;100802.91;5097514;28;19911;-67
2023/10/25 12:17:33;;;;;;;;;;;;;;;12.72;34.42;100799.56;5097278;28;19916;-67
2023/10/25 12:19:58;;;;;;;;;;;;;;;12.78;34.39;100800.63;5097375;28;19912;-67
2023/10/25 12:22:24;;;;;;;;;;;;;;;12.81;34.82;100802.09;5097128;28;20015;-67
2023/10/25 12:24:49;;;;;;;;;;;;;;;12.73;33.18;100803.91;5097011;28;19923;-67
2023/10/25 12:27:15;;;;;;;;;;;;;;;12.59;33.15;100802.16;5097170;28;20391;-67
2023/10/25 12:29:40;;;;;;;;;;;;;;;12.56;34.60;100792.63;5096568;28;20007;-67
2023/10/25 12:32:06;;;;;;;;;;;;;;;12.61;34.12;100783.97;5096935;28;19999;-67
2023/10/25 12:34:31;;;;;;;;;;;;;;;12.44;33.49;100785.31;5096697;28;19912;-67